createdAt,value
2017-06-13T00:00:48.756Z,16.69
2017-06-13T00:02:01.159Z,16.6
2017-06-13T00:03:14.056Z,16.67
2017-06-13T00:04:26.949Z,16.67
2017-06-13T00:05:39.841Z,16.7
2017-06-13T00:06:52.740Z,16.66
2017-06-13T00:08:05.150Z,16.66
2017-06-13T00:09:18.251Z,16.52
2017-06-13T00:10:31.156Z,16.52
2017-06-13T00:11:44.047Z,16.52
2017-06-13T00:12:56.971Z,16.52
2017-06-13T00:14:09.374Z,16.59
2017-06-13T00:15:21.782Z,16.59
2017-06-13T00:16:34.188Z,16.63
2017-06-13T00:17:47.080Z,16.59
2017-06-13T00:18:59.987Z,16.55
2017-06-13T00:20:11.903Z,16.62
2017-06-13T00:21:24.798Z,16.6
2017-06-13T00:22:37.690Z,16.6
2017-06-13T00:23:50.585Z,16.65
2017-06-13T00:25:03.188Z,16.59
2017-06-13T00:26:15.590Z,16.59
2017-06-13T00:27:27.996Z,16.6
2017-06-13T00:28:40.892Z,16.6
2017-06-13T00:29:53.293Z,16.6
2017-06-13T00:31:06.191Z,16.6
2017-06-13T00:32:19.084Z,16.57
2017-06-13T00:33:31.984Z,16.54
2017-06-13T00:34:44.876Z,16.63
2017-06-13T00:35:57.769Z,16.6
2017-06-13T00:37:10.660Z,16.62
2017-06-13T00:38:23.071Z,16.51
2017-06-13T00:39:35.963Z,16.57
2017-06-13T00:40:48.860Z,16.48
2017-06-13T00:42:01.959Z,16.57
2017-06-13T00:43:14.855Z,16.57
2017-06-13T00:44:27.256Z,16.59
2017-06-13T00:45:40.149Z,16.55
2017-06-13T00:46:53.239Z,16.59
2017-06-13T00:48:06.129Z,16.57
2017-06-13T00:49:18.043Z,16.59
2017-06-13T00:50:30.953Z,16.57
2017-06-13T00:51:43.843Z,16.62
2017-06-13T00:52:56.454Z,16.6
2017-06-13T00:54:09.347Z,16.54
2017-06-13T00:55:22.239Z,16.59
2017-06-13T00:56:35.143Z,16.65
2017-06-13T00:57:48.039Z,16.55
2017-06-13T00:59:00.934Z,16.62
2017-06-13T01:00:13.830Z,16.59
2017-06-13T01:01:26.235Z,16.65
2017-06-13T01:02:39.153Z,16.57
2017-06-13T01:03:52.244Z,16.63
2017-06-13T01:05:05.136Z,16.51
2017-06-13T01:06:18.029Z,16.59
2017-06-13T01:07:30.924Z,16.51
2017-06-13T01:08:43.819Z,16.47
2017-06-13T01:09:56.713Z,16.51
2017-06-13T01:11:09.603Z,16.54
2017-06-13T01:12:22.497Z,16.54
2017-06-13T01:13:35.402Z,16.47
2017-06-13T01:14:48.025Z,16.54
2017-06-13T01:16:00.938Z,16.5
2017-06-13T01:17:13.849Z,16.51
2017-06-13T01:18:26.271Z,16.4
2017-06-13T01:19:38.691Z,16.5
2017-06-13T01:20:51.602Z,16.44
2017-06-13T01:22:04.023Z,16.29
2017-06-13T01:23:16.934Z,16.22
2017-06-13T01:24:29.847Z,16.16
2017-06-13T01:25:42.472Z,16.16
2017-06-13T01:26:55.383Z,16.13
2017-06-13T01:28:08.294Z,16.18
2017-06-13T01:29:21.205Z,16.22
2017-06-13T01:30:34.148Z,16.16
2017-06-13T01:31:47.058Z,16.25
2017-06-13T01:32:59.971Z,16.08
2017-06-13T01:34:12.398Z,16.14
2017-06-13T01:35:25.311Z,16.08
2017-06-13T01:36:38.425Z,16.1
2017-06-13T01:37:50.845Z,16.08
2017-06-13T01:39:03.794Z,16.1
2017-06-13T01:40:16.213Z,16.13
2017-06-13T01:41:29.125Z,15.95
2017-06-13T01:42:42.042Z,15.99
2017-06-13T01:43:54.953Z,16.07
2017-06-13T01:45:07.862Z,16.16
2017-06-13T01:46:20.779Z,16.1
2017-06-13T01:47:33.891Z,16.11
2017-06-13T01:48:46.311Z,16.11
2017-06-13T01:49:59.219Z,16.16
2017-06-13T01:51:12.132Z,16.22
2017-06-13T01:52:24.754Z,16.22
2017-06-13T01:53:37.666Z,16.14
2017-06-13T01:54:50.085Z,16.13
2017-06-13T01:56:02.997Z,16.23
2017-06-13T01:57:15.906Z,16.29
2017-06-13T01:58:28.943Z,16.23
2017-06-13T01:59:41.719Z,16.16
2017-06-13T02:00:54.494Z,16.29
2017-06-13T02:02:07.268Z,16.18
2017-06-13T02:03:20.039Z,16.23
2017-06-13T02:04:32.810Z,16.23
2017-06-13T02:05:45.101Z,16.25
2017-06-13T02:06:57.871Z,16.22
2017-06-13T02:08:10.159Z,16.26
2017-06-13T02:09:23.133Z,16.29
2017-06-13T02:10:35.425Z,16.23
2017-06-13T02:11:48.220Z,16.18
2017-06-13T02:13:01.070Z,16.17
2017-06-13T02:14:14.125Z,16.14
2017-06-13T02:15:26.980Z,16.22
2017-06-13T02:16:39.346Z,16.14
2017-06-13T02:17:52.205Z,16.1
2017-06-13T02:19:04.575Z,16.11
2017-06-13T02:20:17.635Z,16.01
2017-06-13T02:21:30.488Z,15.91
2017-06-13T02:22:43.340Z,15.92
2017-06-13T02:23:56.208Z,15.92
2017-06-13T02:25:08.588Z,15.92
2017-06-13T02:26:21.445Z,15.88
2017-06-13T02:27:34.303Z,15.91
2017-06-13T02:28:46.671Z,15.91
2017-06-13T02:29:59.528Z,15.92
2017-06-13T02:31:12.585Z,15.92
2017-06-13T02:32:24.952Z,15.91
2017-06-13T02:33:37.811Z,15.84
2017-06-13T02:34:50.664Z,15.78
2017-06-13T02:36:03.230Z,15.77
2017-06-13T02:37:15.600Z,15.76
2017-06-13T02:38:28.463Z,15.73
2017-06-13T02:39:41.316Z,15.77
2017-06-13T02:40:54.174Z,15.92
2017-06-13T02:42:06.057Z,15.85
2017-06-13T02:43:18.981Z,15.81
2017-06-13T02:44:31.476Z,15.88
2017-06-13T02:45:44.429Z,15.88
2017-06-13T02:46:57.538Z,15.91
2017-06-13T02:48:10.450Z,15.89
2017-06-13T02:49:23.388Z,15.89
2017-06-13T02:50:35.814Z,15.89
2017-06-13T02:51:48.233Z,15.81
2017-06-13T02:53:00.856Z,15.86
2017-06-13T02:54:13.766Z,15.88
2017-06-13T02:55:26.185Z,15.88
2017-06-13T02:56:38.611Z,15.88
2017-06-13T02:57:51.527Z,15.89
2017-06-13T02:59:04.441Z,16.01
2017-06-13T03:00:17.350Z,15.92
2017-06-13T03:01:30.263Z,15.98
2017-06-13T03:02:42.685Z,16.06
2017-06-13T03:03:55.309Z,15.98
2017-06-13T03:05:07.727Z,16.04
2017-06-13T03:06:20.634Z,16.14
2017-06-13T03:07:33.542Z,16.06
2017-06-13T03:08:46.458Z,16.01
2017-06-13T03:09:57.893Z,16.03
2017-06-13T03:11:10.803Z,15.89
2017-06-13T03:12:23.230Z,15.84
2017-06-13T03:13:35.652Z,15.81
2017-06-13T03:14:48.762Z,15.86
2017-06-13T03:16:01.669Z,15.73
2017-06-13T03:17:14.580Z,15.8
2017-06-13T03:18:27.489Z,15.67
2017-06-13T03:19:40.598Z,15.62
2017-06-13T03:20:53.017Z,15.66
2017-06-13T03:22:05.929Z,15.52
2017-06-13T03:23:18.840Z,15.68
2017-06-13T03:24:31.761Z,15.66
2017-06-13T03:25:44.671Z,15.66
2017-06-13T03:26:57.580Z,15.6
2017-06-13T03:28:10.487Z,15.51
2017-06-13T03:29:22.397Z,15.58
2017-06-13T03:30:35.293Z,15.62
2017-06-13T03:31:48.188Z,15.6
2017-06-13T03:33:00.586Z,15.58
2017-06-13T03:34:13.476Z,15.59
2017-06-13T03:35:25.389Z,15.55
2017-06-13T03:36:38.479Z,15.43
2017-06-13T03:37:50.879Z,15.43
2017-06-13T03:39:03.771Z,15.49
2017-06-13T03:40:16.663Z,15.44
2017-06-13T03:41:29.262Z,15.49
2017-06-13T03:42:42.158Z,15.41
2017-06-13T03:43:55.049Z,15.44
2017-06-13T03:45:07.941Z,15.41
2017-06-13T03:46:20.347Z,15.37
2017-06-13T03:47:33.441Z,15.35
2017-06-13T03:48:45.847Z,15.44
2017-06-13T03:49:58.741Z,15.43
2017-06-13T03:51:10.656Z,15.51
2017-06-13T03:52:23.285Z,15.37
2017-06-13T03:53:35.208Z,15.49
2017-06-13T03:54:48.101Z,15.58
2017-06-13T03:56:00.992Z,15.64
2017-06-13T03:57:13.883Z,15.59
2017-06-13T03:58:26.483Z,15.55
2017-06-13T03:59:38.399Z,15.59
2017-06-13T04:00:50.307Z,15.53
2017-06-13T04:02:03.214Z,15.55
2017-06-13T04:03:16.110Z,15.49
2017-06-13T04:04:28.511Z,15.44
2017-06-13T04:05:41.404Z,15.44
2017-06-13T04:06:53.809Z,15.48
2017-06-13T04:08:06.695Z,15.58
2017-06-13T04:09:19.595Z,15.6
2017-06-13T04:10:31.503Z,15.64
2017-06-13T04:11:44.396Z,15.58
2017-06-13T04:12:57.286Z,15.59
2017-06-13T04:14:10.317Z,15.58
2017-06-13T04:15:23.089Z,15.41
2017-06-13T04:16:35.858Z,15.52
2017-06-13T04:17:48.629Z,15.48
2017-06-13T04:19:01.400Z,15.35
2017-06-13T04:20:14.174Z,15.3
2017-06-13T04:21:26.951Z,15.31
2017-06-13T04:22:39.759Z,15.27
2017-06-13T04:23:52.052Z,15.35
2017-06-13T04:25:05.025Z,15.31
2017-06-13T04:26:17.800Z,15.25
2017-06-13T04:27:30.090Z,15.28
2017-06-13T04:28:42.388Z,15.3
2017-06-13T04:29:55.163Z,15.31
2017-06-13T04:31:08.136Z,15.31
2017-06-13T04:32:20.427Z,15.28
2017-06-13T04:33:32.725Z,15.22
2017-06-13T04:34:45.498Z,15.34
2017-06-13T04:35:58.465Z,15.28
2017-06-13T04:37:11.237Z,15.33
2017-06-13T04:38:24.005Z,15.4
2017-06-13T04:39:36.775Z,15.4
2017-06-13T04:40:49.070Z,15.52
2017-06-13T04:42:01.363Z,15.48
2017-06-13T04:43:13.655Z,15.53
2017-06-13T04:44:25.952Z,15.52
2017-06-13T04:45:38.725Z,15.66
2017-06-13T04:46:51.702Z,15.68
2017-06-13T04:48:04.477Z,15.68
2017-06-13T04:49:17.248Z,15.68
2017-06-13T04:50:30.020Z,15.71
2017-06-13T04:51:42.311Z,15.68
2017-06-13T04:52:55.284Z,15.67
2017-06-13T04:54:08.058Z,15.74
2017-06-13T04:55:20.832Z,15.66
2017-06-13T04:56:33.129Z,15.6
2017-06-13T04:57:46.112Z,15.62
2017-06-13T04:58:58.953Z,15.66
2017-06-13T05:00:11.378Z,15.7
2017-06-13T05:01:23.800Z,15.7
2017-06-13T05:02:36.221Z,15.78
2017-06-13T05:03:49.267Z,15.77
2017-06-13T05:05:02.041Z,15.81
2017-06-13T05:06:14.335Z,15.85
2017-06-13T05:07:26.625Z,15.86
2017-06-13T05:08:39.156Z,15.84
2017-06-13T05:09:51.452Z,15.73
2017-06-13T05:11:04.226Z,15.66
2017-06-13T05:12:16.999Z,15.58
2017-06-13T05:13:29.289Z,15.59
2017-06-13T05:14:41.783Z,15.67
2017-06-13T05:15:54.556Z,15.58
2017-06-13T05:17:07.328Z,15.7
2017-06-13T05:18:20.101Z,15.7
2017-06-13T05:19:32.410Z,15.76
2017-06-13T05:20:44.219Z,15.78
2017-06-13T05:21:56.989Z,15.74
2017-06-13T05:23:09.760Z,15.89
2017-06-13T05:24:22.050Z,15.84
2017-06-13T05:25:35.021Z,15.88
2017-06-13T05:26:47.799Z,15.86
2017-06-13T05:28:00.574Z,15.86
2017-06-13T05:29:13.346Z,15.89
2017-06-13T05:30:26.316Z,15.89
2017-06-13T05:31:39.090Z,16.01
2017-06-13T05:32:51.865Z,15.99
2017-06-13T05:34:04.638Z,15.98
2017-06-13T05:35:17.407Z,16.14
2017-06-13T05:36:30.380Z,16.11
2017-06-13T05:37:42.669Z,16.06
2017-06-13T05:38:55.440Z,16.08
2017-06-13T05:40:08.215Z,16.07
2017-06-13T05:41:21.190Z,16.07
2017-06-13T05:42:33.962Z,16.01
2017-06-13T05:43:46.327Z,15.99
2017-06-13T05:44:58.747Z,16.14
2017-06-13T05:46:11.656Z,16.13
2017-06-13T05:47:24.562Z,16.14
2017-06-13T05:48:37.470Z,16.1
2017-06-13T05:49:50.376Z,16.14
2017-06-13T05:51:02.795Z,16.08
2017-06-13T05:52:15.708Z,16.14
2017-06-13T05:53:28.135Z,16.14
2017-06-13T05:54:41.049Z,16.22
2017-06-13T05:55:53.958Z,16.11
2017-06-13T05:57:06.867Z,16.22
2017-06-13T05:58:19.777Z,16.16
2017-06-13T05:59:32.690Z,16.22
2017-06-13T06:00:45.109Z,16.25
2017-06-13T06:01:58.025Z,16.25
2017-06-13T06:03:10.937Z,16.26
2017-06-13T06:04:23.356Z,16.32
2017-06-13T06:05:36.266Z,16.26
2017-06-13T06:06:49.174Z,16.25
2017-06-13T06:08:01.599Z,16.22
2017-06-13T06:09:14.221Z,16.22
2017-06-13T06:10:26.644Z,16.17
2017-06-13T06:11:39.552Z,16.14
2017-06-13T06:12:52.462Z,16.17
2017-06-13T06:14:05.569Z,16.16
2017-06-13T06:15:17.992Z,16.13
2017-06-13T06:16:30.904Z,16.13
2017-06-13T06:17:43.829Z,16.22
2017-06-13T06:18:56.739Z,16.06
2017-06-13T06:20:09.357Z,16.06
2017-06-13T06:21:21.289Z,16.14
2017-06-13T06:22:34.215Z,16.07
2017-06-13T06:23:47.130Z,16.13
2017-06-13T06:25:00.242Z,16.06
2017-06-13T06:26:12.665Z,16.08
2017-06-13T06:27:25.573Z,16.17
2017-06-13T06:28:38.479Z,16.13
2017-06-13T06:29:50.904Z,16.08
2017-06-13T06:31:03.812Z,16.18
2017-06-13T06:32:16.228Z,16.18
2017-06-13T06:33:29.143Z,16.26
2017-06-13T06:34:41.565Z,16.29
2017-06-13T06:35:54.185Z,16.33
2017-06-13T06:37:07.103Z,16.29
2017-06-13T06:38:19.525Z,16.34
2017-06-13T06:39:31.941Z,16.34
2017-06-13T06:40:44.850Z,16.33
2017-06-13T06:41:56.978Z,16.33
2017-06-13T06:43:09.397Z,16.33
2017-06-13T06:44:21.817Z,16.3
2017-06-13T06:45:33.746Z,16.27
2017-06-13T06:46:46.267Z,16.22
2017-06-13T06:47:59.176Z,16.23
2017-06-13T06:49:11.600Z,16.14
2017-06-13T06:50:24.512Z,16.18
2017-06-13T06:51:36.931Z,16.32
2017-06-13T06:52:49.938Z,16.26
2017-06-13T06:54:02.868Z,16.3
2017-06-13T06:55:15.787Z,16.22
2017-06-13T06:56:27.719Z,16.32
2017-06-13T06:57:40.746Z,16.3
2017-06-13T06:58:53.653Z,16.27
2017-06-13T07:00:06.069Z,16.23
2017-06-13T07:01:18.976Z,16.26
2017-06-13T07:02:31.888Z,16.25
2017-06-13T07:03:44.996Z,16.18
2017-06-13T07:04:57.411Z,16.3
2017-06-13T07:06:09.340Z,16.36
2017-06-13T07:07:21.762Z,16.25
2017-06-13T07:08:34.188Z,16.34
2017-06-13T07:09:47.107Z,16.29
2017-06-13T07:10:59.530Z,16.3
2017-06-13T07:12:11.978Z,16.18
2017-06-13T07:13:24.452Z,16.13
2017-06-13T07:14:37.084Z,16.13
2017-06-13T07:15:50.003Z,16.01
2017-06-13T07:17:02.914Z,16.04
2017-06-13T07:18:15.826Z,16.16
2017-06-13T07:19:28.738Z,16.08
2017-06-13T07:20:41.657Z,16.06
2017-06-13T07:21:54.578Z,16.07
2017-06-13T07:23:07.490Z,16.06
2017-06-13T07:24:20.400Z,16.16
2017-06-13T07:25:33.515Z,16.13
2017-06-13T07:26:45.941Z,16.13
2017-06-13T07:27:58.854Z,16.13
2017-06-13T07:29:11.766Z,16.13
2017-06-13T07:30:24.878Z,16.18
2017-06-13T07:31:37.791Z,16.08
2017-06-13T07:32:50.212Z,16.14
2017-06-13T07:34:03.161Z,16.08
2017-06-13T07:35:16.072Z,16.1
2017-06-13T07:36:28.984Z,16.1
2017-06-13T07:37:41.894Z,16.13
2017-06-13T07:38:54.315Z,16.11
2017-06-13T07:40:07.228Z,16.16
2017-06-13T07:41:19.852Z,16.14
2017-06-13T07:42:32.763Z,16.26
2017-06-13T07:43:45.676Z,16.3
2017-06-13T07:44:58.588Z,16.29
2017-06-13T07:46:11.439Z,16.18
2017-06-13T07:47:23.931Z,16.16
2017-06-13T07:48:36.727Z,16.18
2017-06-13T07:49:49.021Z,16.16
2017-06-13T07:51:01.793Z,16.08
2017-06-13T07:52:14.084Z,16.18
2017-06-13T07:53:26.855Z,16.13
2017-06-13T07:54:39.630Z,16.16
2017-06-13T07:55:52.401Z,16.17
2017-06-13T07:57:05.175Z,16.17
2017-06-13T07:58:18.213Z,16.17
2017-06-13T07:59:30.123Z,16.13
2017-06-13T08:00:42.525Z,16.04
2017-06-13T08:01:55.414Z,15.98
2017-06-13T08:03:08.017Z,15.95
2017-06-13T08:04:19.931Z,15.88
2017-06-13T08:05:32.830Z,15.91
2017-06-13T08:06:45.722Z,15.93
2017-06-13T08:07:58.613Z,16.08
2017-06-13T08:09:11.503Z,15.93
2017-06-13T08:10:24.395Z,15.96
2017-06-13T08:11:37.291Z,15.99
2017-06-13T08:12:50.189Z,16.06
2017-06-13T08:14:03.082Z,16.04
2017-06-13T08:15:15.980Z,16.1
2017-06-13T08:16:28.873Z,16.18
2017-06-13T08:17:41.792Z,16.14
2017-06-13T08:18:54.720Z,16.1
2017-06-13T08:20:07.693Z,16.16
2017-06-13T08:21:20.682Z,16.11
2017-06-13T08:22:33.656Z,16.18
2017-06-13T08:23:46.630Z,16.17
2017-06-13T08:24:59.808Z,16.14
2017-06-13T08:26:12.313Z,16.13
2017-06-13T08:27:25.328Z,16.11
2017-06-13T08:28:37.808Z,16.14
2017-06-13T08:29:50.819Z,16.11
2017-06-13T08:31:03.791Z,16.08
2017-06-13T08:32:16.269Z,16.17
2017-06-13T08:33:29.246Z,16.07
2017-06-13T08:34:42.225Z,16.13
2017-06-13T08:35:54.903Z,16.18
2017-06-13T08:37:07.875Z,16.13
2017-06-13T08:38:20.355Z,16.29
2017-06-13T08:39:33.336Z,16.26
2017-06-13T08:40:46.307Z,16.29
2017-06-13T08:41:58.989Z,16.32
2017-06-13T08:43:11.497Z,16.18
2017-06-13T08:44:24.473Z,16.26
2017-06-13T08:45:37.446Z,16.29
2017-06-13T08:46:49.932Z,16.18
2017-06-13T08:48:02.911Z,16.22
2017-06-13T08:49:15.390Z,16.18
2017-06-13T08:50:28.368Z,16.18
2017-06-13T08:51:41.353Z,16.27
2017-06-13T08:52:54.372Z,16.22
2017-06-13T08:54:07.410Z,16.27
2017-06-13T08:55:20.449Z,16.25
2017-06-13T08:56:33.485Z,16.32
2017-06-13T08:57:46.051Z,16.27
2017-06-13T08:58:58.584Z,16.27
2017-06-13T09:00:11.117Z,16.26
2017-06-13T09:01:24.152Z,16.17
2017-06-13T09:02:36.686Z,16.17
2017-06-13T09:03:49.930Z,16.23
2017-06-13T09:05:02.965Z,16.22
2017-06-13T09:06:15.498Z,16.32
2017-06-13T09:07:28.531Z,16.41
2017-06-13T09:08:41.765Z,16.36
2017-06-13T09:09:54.301Z,16.37
2017-06-13T09:11:07.337Z,16.41
2017-06-13T09:12:20.374Z,16.45
2017-06-13T09:13:32.413Z,16.44
2017-06-13T09:14:45.447Z,16.37
2017-06-13T09:15:58.479Z,16.4
2017-06-13T09:17:11.512Z,16.44
2017-06-13T09:18:24.545Z,16.32
2017-06-13T09:19:37.777Z,16.42
2017-06-13T09:20:50.310Z,16.34
2017-06-13T09:22:02.854Z,16.3
2017-06-13T09:23:15.892Z,16.29
2017-06-13T09:24:28.927Z,16.22
2017-06-13T09:25:42.160Z,16.18
2017-06-13T09:26:55.145Z,16.08
2017-06-13T09:28:07.987Z,16.01
2017-06-13T09:29:20.278Z,15.96
2017-06-13T09:30:32.570Z,15.86
2017-06-13T09:31:44.860Z,15.8
2017-06-13T09:32:57.629Z,15.71
2017-06-13T09:34:09.925Z,15.6
2017-06-13T09:35:22.219Z,15.55
2017-06-13T09:36:34.511Z,15.33
2017-06-13T09:37:47.282Z,15.4
2017-06-13T09:39:00.053Z,15.35
2017-06-13T09:40:12.345Z,15.34
2017-06-13T09:41:25.319Z,15.35
2017-06-13T09:42:38.130Z,15.34
2017-06-13T09:43:50.901Z,15.35
2017-06-13T09:45:03.670Z,15.3
2017-06-13T09:46:16.446Z,15.25
2017-06-13T09:47:29.422Z,15.2
2017-06-13T09:48:42.195Z,15.27
2017-06-13T09:49:54.982Z,15.27
2017-06-13T09:51:07.759Z,15.27
2017-06-13T09:52:20.735Z,15.27
2017-06-13T09:53:33.504Z,15.33
2017-06-13T09:54:46.276Z,15.27
2017-06-13T09:55:59.046Z,15.31
2017-06-13T09:57:11.819Z,15.37
2017-06-13T09:58:24.310Z,15.38
2017-06-13T09:59:36.601Z,15.3
2017-06-13T10:00:49.371Z,15.28
2017-06-13T10:02:02.141Z,15.13
2017-06-13T10:03:15.114Z,15.15
2017-06-13T10:04:27.407Z,15.28
2017-06-13T10:05:39.697Z,15.31
2017-06-13T10:06:51.989Z,15.38
2017-06-13T10:08:04.280Z,15.41
2017-06-13T10:09:16.293Z,15.37
2017-06-13T10:10:29.064Z,15.31
2017-06-13T10:11:41.835Z,15.2
2017-06-13T10:12:54.130Z,15.23
2017-06-13T10:14:07.014Z,15.27
2017-06-13T10:15:19.415Z,15.33
2017-06-13T10:16:32.307Z,15.34
2017-06-13T10:17:45.203Z,15.33
2017-06-13T10:18:58.094Z,15.48
2017-06-13T10:20:10.494Z,15.38
2017-06-13T10:21:23.384Z,15.46
2017-06-13T10:22:36.274Z,15.35
2017-06-13T10:23:49.172Z,15.51
2017-06-13T10:25:02.265Z,15.4
2017-06-13T10:26:15.159Z,15.51
2017-06-13T10:27:27.573Z,15.51
2017-06-13T10:28:40.463Z,15.48
2017-06-13T10:29:53.352Z,15.44
2017-06-13T10:31:20.297Z,15.41
2017-06-13T10:32:32.701Z,15.27
2017-06-13T10:33:45.591Z,15.28
2017-06-13T10:34:58.010Z,15.28
2017-06-13T10:36:10.904Z,15.35
2017-06-13T10:37:22.816Z,15.38
2017-06-13T10:38:35.704Z,15.4
2017-06-13T10:39:48.605Z,15.38
2017-06-13T10:41:01.698Z,15.44
2017-06-13T10:42:14.588Z,15.58
2017-06-13T10:43:27.484Z,15.58
2017-06-13T10:44:40.378Z,15.51
2017-06-13T10:45:53.269Z,15.64
2017-06-13T10:47:06.169Z,15.64
2017-06-13T10:48:19.061Z,15.7
2017-06-13T10:49:31.464Z,15.7
2017-06-13T10:50:44.369Z,15.81
2017-06-13T10:51:57.455Z,15.73
2017-06-13T10:53:10.345Z,15.78
2017-06-13T10:54:23.273Z,15.85
2017-06-13T10:55:35.189Z,15.92
2017-06-13T10:56:48.085Z,15.88
2017-06-13T10:58:00.982Z,15.88
2017-06-13T10:59:13.399Z,15.92
2017-06-13T11:00:25.823Z,15.98
2017-06-13T11:01:38.736Z,15.91
2017-06-13T11:02:51.357Z,15.98
2017-06-13T11:04:04.303Z,15.99
2017-06-13T11:05:16.724Z,16.1
2017-06-13T11:06:29.634Z,16.1
2017-06-13T11:07:42.051Z,16.07
2017-06-13T11:08:54.671Z,16.08
2017-06-13T11:10:07.582Z,16.16
2017-06-13T11:11:20.007Z,16.1
2017-06-13T11:12:32.917Z,16.11
2017-06-13T11:13:46.025Z,16.11
2017-06-13T11:14:58.942Z,16.14
2017-06-13T11:16:11.395Z,16.14
2017-06-13T11:17:23.814Z,16.08
2017-06-13T11:18:35.745Z,16.14
2017-06-13T11:19:48.218Z,16.13
2017-06-13T11:21:01.128Z,16.17
2017-06-13T11:22:13.554Z,16.14
2017-06-13T11:23:25.973Z,16.23
2017-06-13T11:24:38.942Z,16.18
2017-06-13T11:25:51.367Z,16.18
2017-06-13T11:27:03.788Z,16.16
2017-06-13T11:28:16.696Z,16.23
2017-06-13T11:29:29.604Z,16.22
2017-06-13T11:30:42.519Z,16.22
2017-06-13T11:31:55.428Z,16.27
2017-06-13T11:33:08.339Z,16.29
2017-06-13T11:34:21.255Z,16.3
2017-06-13T11:35:33.776Z,16.34
2017-06-13T11:36:46.195Z,16.4
2017-06-13T11:37:59.108Z,16.4
2017-06-13T11:39:11.535Z,16.36
2017-06-13T11:40:24.444Z,16.45
2017-06-13T11:41:37.555Z,16.45
2017-06-13T11:42:49.485Z,16.44
2017-06-13T11:44:02.398Z,16.37
2017-06-13T11:45:15.309Z,16.4
2017-06-13T11:46:28.427Z,16.3
2017-06-13T11:47:41.341Z,16.37
2017-06-13T11:48:54.254Z,16.4
2017-06-13T11:50:06.673Z,16.33
2017-06-13T11:51:19.586Z,16.33
2017-06-13T11:52:32.502Z,16.3
2017-06-13T11:53:44.921Z,16.36
2017-06-13T11:54:57.835Z,16.37
2017-06-13T11:56:10.744Z,16.42
2017-06-13T11:57:23.856Z,16.41
2017-06-13T11:58:36.293Z,16.37
2017-06-13T11:59:49.203Z,16.4
2017-06-13T12:01:01.623Z,16.42
2017-06-13T12:02:14.542Z,16.41
2017-06-13T12:03:26.969Z,16.44
2017-06-13T12:04:39.879Z,16.4
2017-06-13T12:05:52.298Z,16.4
2017-06-13T12:07:05.209Z,16.44
2017-06-13T12:08:18.326Z,16.44
2017-06-13T12:09:31.237Z,16.45
2017-06-13T12:10:43.168Z,16.41
2017-06-13T12:11:56.078Z,16.48
2017-06-13T12:13:08.502Z,16.47
2017-06-13T12:14:21.513Z,16.52
2017-06-13T12:15:33.943Z,16.52
2017-06-13T12:16:46.854Z,16.57
2017-06-13T12:17:59.767Z,16.52
2017-06-13T12:19:12.877Z,16.55
2017-06-13T12:20:25.786Z,16.57
2017-06-13T12:21:38.205Z,16.44
2017-06-13T12:22:51.133Z,16.5
2017-06-13T12:24:04.052Z,16.32
2017-06-13T12:25:16.573Z,16.4
2017-06-13T12:26:29.482Z,16.41
2017-06-13T12:27:42.393Z,16.37
2017-06-13T12:28:54.796Z,16.26
2017-06-13T12:30:07.918Z,16.22
2017-06-13T12:31:20.318Z,16.36
2017-06-13T12:32:32.716Z,16.34
2017-06-13T12:33:44.624Z,16.33
2017-06-13T12:34:57.518Z,16.41
2017-06-13T12:36:09.949Z,16.5
2017-06-13T12:37:22.838Z,16.5
2017-06-13T12:38:35.726Z,16.47
2017-06-13T12:39:48.620Z,16.52
2017-06-13T12:41:01.717Z,16.41
2017-06-13T12:42:14.124Z,16.41
2017-06-13T12:43:26.034Z,16.42
2017-06-13T12:44:38.936Z,16.47
2017-06-13T12:45:51.826Z,16.57
2017-06-13T12:47:05.060Z,16.52
2017-06-13T12:48:17.461Z,16.42
2017-06-13T12:49:29.859Z,16.59
2017-06-13T12:50:42.751Z,16.65
2017-06-13T12:51:55.355Z,16.66
2017-06-13T12:53:08.249Z,16.78
2017-06-13T12:54:21.142Z,16.8
2017-06-13T12:55:33.054Z,16.88
2017-06-13T12:56:45.944Z,16.75
2017-06-13T12:57:58.833Z,16.8
2017-06-13T12:59:11.244Z,16.87
2017-06-13T13:00:23.159Z,16.95
2017-06-13T13:01:36.049Z,17.02
2017-06-13T13:02:49.141Z,16.99
2017-06-13T13:04:02.039Z,17.03
2017-06-13T13:05:14.442Z,17.18
2017-06-13T13:06:27.344Z,17.22
2017-06-13T13:07:40.234Z,17.15
2017-06-13T13:08:52.634Z,17.15
2017-06-13T13:10:05.044Z,17.25
2017-06-13T13:11:18.093Z,17.36
2017-06-13T13:12:30.524Z,17.33
2017-06-13T13:13:43.312Z,17.33
2017-06-13T13:14:55.125Z,17.32
2017-06-13T13:16:07.421Z,17.25
2017-06-13T13:17:19.280Z,17.28
2017-06-13T13:18:32.053Z,17.24
2017-06-13T13:19:44.828Z,17.35
2017-06-13T13:20:57.119Z,17.38
2017-06-13T13:22:09.411Z,17.4
2017-06-13T13:23:22.186Z,17.45
2017-06-13T13:24:34.963Z,17.38
2017-06-13T13:25:47.737Z,17.32
2017-06-13T13:27:00.510Z,17.32
2017-06-13T13:28:12.800Z,17.4
2017-06-13T13:29:25.577Z,17.38
2017-06-13T13:30:38.349Z,17.46
2017-06-13T13:31:50.642Z,17.46
2017-06-13T13:33:02.939Z,17.49
2017-06-13T13:34:15.711Z,17.54
2017-06-13T13:35:28.004Z,17.68
2017-06-13T13:36:40.790Z,17.71
2017-06-13T13:37:53.567Z,17.65
2017-06-13T13:39:06.349Z,17.73
2017-06-13T13:40:18.644Z,17.79
2017-06-13T13:41:31.457Z,17.91
2017-06-13T13:42:43.748Z,17.99
2017-06-13T13:43:56.042Z,18.1
2017-06-13T13:45:08.347Z,18.19
2017-06-13T13:46:21.128Z,18.21
2017-06-13T13:47:33.426Z,18.21
2017-06-13T13:48:45.723Z,18.39
2017-06-13T13:49:58.701Z,18.36
2017-06-13T13:51:11.478Z,18.31
2017-06-13T13:52:23.776Z,18.31
2017-06-13T13:53:35.595Z,18.36
2017-06-13T13:54:48.570Z,18.36
2017-06-13T13:56:01.347Z,18.38
2017-06-13T13:57:13.644Z,18.38
2017-06-13T13:58:25.939Z,18.31
2017-06-13T13:59:38.229Z,18.32
2017-06-13T14:00:50.042Z,18.32
2017-06-13T14:02:02.817Z,18.36
2017-06-13T14:03:15.591Z,18.25
2017-06-13T14:04:27.909Z,18.2
2017-06-13T14:05:40.201Z,18.21
2017-06-13T14:06:52.974Z,18.19
2017-06-13T14:08:05.269Z,18.25
2017-06-13T14:09:18.050Z,18.2
2017-06-13T14:10:29.905Z,18.21
2017-06-13T14:11:42.680Z,18.39
2017-06-13T14:12:54.492Z,18.34
2017-06-13T14:14:07.268Z,18.35
2017-06-13T14:15:20.045Z,18.41
2017-06-13T14:16:32.853Z,18.36
2017-06-13T14:17:44.663Z,18.39
2017-06-13T14:18:57.436Z,18.41
2017-06-13T14:20:10.209Z,18.53
2017-06-13T14:21:22.502Z,18.47
2017-06-13T14:22:34.805Z,18.42
2017-06-13T14:23:47.581Z,18.39
2017-06-13T14:25:00.359Z,18.38
2017-06-13T14:26:13.136Z,18.38
2017-06-13T14:27:25.915Z,18.38
2017-06-13T14:28:38.688Z,18.39
2017-06-13T14:29:51.464Z,18.34
2017-06-13T14:31:04.242Z,18.39
2017-06-13T14:32:16.535Z,18.46
2017-06-13T14:33:29.310Z,18.39
2017-06-13T14:34:42.082Z,18.38
2017-06-13T14:35:54.863Z,18.44
2017-06-13T14:37:07.646Z,18.51
2017-06-13T14:38:20.419Z,18.51
2017-06-13T14:39:32.713Z,18.54
2017-06-13T14:40:45.493Z,18.49
2017-06-13T14:41:58.269Z,18.54
2017-06-13T14:43:11.621Z,18.5
2017-06-13T14:44:24.533Z,18.54
2017-06-13T14:45:36.953Z,18.64
2017-06-13T14:46:49.376Z,18.66
2017-06-13T14:48:02.290Z,18.69
2017-06-13T14:49:15.202Z,18.76
2017-06-13T14:50:28.112Z,18.74
2017-06-13T14:51:41.029Z,18.91
2017-06-13T14:52:53.944Z,18.79
2017-06-13T14:54:06.855Z,18.83
2017-06-13T14:55:19.773Z,18.83
2017-06-13T14:56:31.705Z,18.82
2017-06-13T14:57:44.125Z,18.82
2017-06-13T14:58:57.039Z,18.94
2017-06-13T15:00:09.462Z,18.86
2017-06-13T15:01:22.380Z,18.91
2017-06-13T15:02:34.811Z,18.86
2017-06-13T15:03:47.726Z,18.79
2017-06-13T15:05:00.147Z,18.64
2017-06-13T15:06:13.059Z,18.68
2017-06-13T15:07:25.973Z,18.74
2017-06-13T15:08:38.923Z,18.76
2017-06-13T15:09:51.864Z,18.78
2017-06-13T15:11:04.977Z,18.76
2017-06-13T15:12:17.889Z,18.82
2017-06-13T15:13:30.800Z,18.84
2017-06-13T15:14:43.712Z,18.87
2017-06-13T15:15:56.827Z,18.93
2017-06-13T15:17:09.738Z,18.75
2017-06-13T15:18:22.651Z,18.78
2017-06-13T15:19:35.072Z,18.74
2017-06-13T15:20:47.986Z,18.71
2017-06-13T15:22:01.105Z,18.62
2017-06-13T15:23:13.530Z,18.54
2017-06-13T15:24:26.445Z,18.59
2017-06-13T15:25:39.355Z,18.6
2017-06-13T15:26:52.277Z,18.6
2017-06-13T15:28:04.215Z,18.54
2017-06-13T15:29:17.131Z,18.69
2017-06-13T15:30:30.055Z,18.68
2017-06-13T15:31:42.999Z,18.69
2017-06-13T15:32:55.920Z,18.75
2017-06-13T15:34:08.833Z,18.83
2017-06-13T15:35:21.822Z,18.76
2017-06-13T15:36:34.393Z,18.79
2017-06-13T15:37:47.450Z,18.9
2017-06-13T15:39:00.008Z,18.9
2017-06-13T15:40:13.067Z,18.83